createdAt,value
2022-12-17T00:00:42.246Z,59.07
2022-12-17T00:03:29.952Z,58.20
2022-12-17T00:06:15.374Z,64.67
2022-12-17T00:09:00.925Z,61.17
2022-12-17T00:11:46.137Z,63.97
2022-12-17T00:14:31.570Z,54.87
2022-12-17T00:17:17.161Z,63.10
2022-12-17T00:20:02.563Z,59.93
2022-12-17T00:22:47.950Z,56.47
2022-12-17T00:25:33.755Z,69.50
2022-12-17T00:28:19.188Z,55.80
2022-12-17T00:31:11.088Z,52.97
2022-12-17T00:33:56.720Z,69.37
2022-12-17T00:36:42.249Z,64.67
2022-12-17T00:39:27.679Z,64.03
2022-12-17T00:42:15.196Z,64.70
2022-12-17T00:45:00.610Z,64.80
2022-12-17T00:47:46.045Z,59.20
2022-12-17T00:50:31.363Z,52.60
2022-12-17T00:53:16.801Z,57.80
2022-12-17T00:56:02.282Z,64.03
2022-12-17T00:58:47.702Z,51.80
2022-12-17T01:01:33.429Z,62.20
2022-12-17T01:04:19.200Z,54.80
2022-12-17T01:07:04.869Z,59.17
2022-12-17T01:09:50.074Z,52.73
2022-12-17T01:12:35.750Z,50.73
2022-12-17T01:15:21.295Z,63.53
2022-12-17T01:18:06.640Z,47.53
2022-12-17T01:20:52.462Z,57.27
2022-12-17T01:23:38.212Z,61.27
2022-12-17T01:26:24.589Z,51.33
2022-12-17T01:29:09.882Z,57.47
2022-12-17T01:31:55.215Z,58.50
2022-12-17T01:34:40.664Z,55.33
2022-12-17T01:37:36.657Z,49.97
2022-12-17T01:40:22.385Z,41.70
2022-12-17T01:43:07.689Z,40.13
2022-12-17T01:46:06.110Z,53.23
2022-12-17T01:49:02.616Z,64.53
2022-12-17T01:51:50.048Z,48.97
2022-12-17T01:54:38.170Z,61.17
2022-12-17T01:57:25.937Z,66.17
2022-12-17T02:00:19.389Z,57.53
2022-12-17T02:03:05.794Z,31.03
2022-12-17T02:06:22.758Z,52.67
2022-12-17T02:09:29.692Z,30.07
2022-12-17T02:12:53.085Z,41.00
2022-12-17T02:16:05.806Z,46.97
2022-12-17T02:18:59.305Z,55.83
2022-12-17T02:21:47.370Z,43.53
2022-12-17T02:24:51.044Z,50.00
2022-12-17T02:27:36.854Z,54.13
2022-12-17T02:30:27.522Z,51.03
2022-12-17T02:33:14.785Z,59.90
2022-12-17T02:36:06.249Z,56.83
2022-12-17T02:38:52.849Z,56.60
2022-12-17T02:41:48.190Z,52.40
2022-12-17T02:44:36.924Z,57.40
2022-12-17T02:47:26.559Z,57.93
2022-12-17T02:50:12.874Z,56.77
2022-12-17T02:53:05.100Z,51.30
2022-12-17T02:55:51.353Z,31.87
2022-12-17T02:58:36.689Z,52.83
2022-12-17T03:01:23.993Z,49.67
2022-12-17T03:04:10.141Z,55.73
2022-12-17T03:06:55.525Z,55.10
2022-12-17T03:09:41.332Z,50.17
2022-12-17T03:12:26.540Z,53.13
2022-12-17T03:15:11.855Z,58.13
2022-12-17T03:17:57.136Z,60.73
2022-12-17T03:20:42.560Z,53.37
2022-12-17T03:23:31.230Z,52.77
2022-12-17T03:26:20.160Z,55.77
2022-12-17T03:29:06.237Z,48.50
2022-12-17T03:31:51.993Z,54.43
2022-12-17T03:34:37.382Z,56.10
2022-12-17T03:37:24.448Z,52.63
2022-12-17T03:40:09.784Z,65.27
2022-12-17T03:42:55.575Z,54.47
2022-12-17T03:45:41.150Z,58.70
2022-12-17T03:48:31.188Z,62.60
2022-12-17T03:51:17.591Z,63.43
2022-12-17T03:54:04.014Z,65.47
2022-12-17T03:56:50.915Z,47.53
2022-12-17T03:59:36.231Z,59.17
2022-12-17T04:02:22.205Z,67.40
2022-12-17T04:05:08.285Z,54.43
2022-12-17T04:07:54.165Z,62.57
2022-12-17T04:10:39.464Z,52.80
2022-12-17T04:13:24.831Z,54.47
2022-12-17T04:16:10.584Z,52.90
2022-12-17T04:18:56.500Z,60.60
2022-12-17T04:21:41.770Z,60.57
2022-12-17T04:24:27.699Z,59.10
2022-12-17T04:27:13.199Z,48.60
2022-12-17T04:29:58.485Z,56.63
2022-12-17T04:32:43.819Z,64.80
2022-12-17T04:35:29.287Z,58.87
2022-12-17T04:38:15.020Z,71.90
2022-12-17T04:41:00.489Z,62.27
2022-12-17T04:43:46.124Z,58.07
2022-12-17T04:46:31.876Z,60.40
2022-12-17T04:49:17.720Z,63.70
2022-12-17T04:52:03.010Z,54.00
2022-12-17T04:54:48.421Z,62.70
2022-12-17T04:57:34.095Z,62.87
2022-12-17T05:00:19.753Z,66.70
2022-12-17T05:03:05.068Z,63.97
2022-12-17T05:05:50.806Z,58.17
2022-12-17T05:08:56.239Z,50.63
2022-12-17T05:11:41.829Z,56.17
2022-12-17T05:14:27.207Z,63.23
2022-12-17T05:17:13.130Z,65.27
2022-12-17T05:19:59.044Z,62.53
2022-12-17T05:22:44.413Z,61.03
2022-12-17T05:25:29.575Z,67.50
2022-12-17T05:28:14.890Z,71.30
2022-12-17T05:31:00.567Z,59.40
2022-12-17T05:33:46.731Z,70.87
2022-12-17T05:36:31.889Z,69.73
2022-12-17T05:39:17.500Z,70.93
2022-12-17T05:42:02.979Z,58.07
2022-12-17T05:44:48.290Z,58.40
2022-12-17T05:47:33.915Z,58.97
2022-12-17T05:50:36.605Z,64.37
2022-12-17T05:53:25.446Z,49.50
2022-12-17T05:56:12.364Z,58.73
2022-12-17T05:58:58.833Z,63.67
2022-12-17T06:01:44.279Z,60.40
2022-12-17T06:04:30.154Z,61.23
2022-12-17T06:07:15.640Z,63.87
2022-12-17T06:10:00.974Z,68.00
2022-12-17T06:12:46.446Z,70.17
2022-12-17T06:15:32.769Z,61.47
2022-12-17T06:18:18.566Z,69.23
2022-12-17T06:21:04.753Z,70.07
2022-12-17T06:23:50.107Z,51.03
2022-12-17T06:26:36.178Z,60.97
2022-12-17T06:29:21.568Z,60.53
2022-12-17T06:32:07.130Z,55.80
2022-12-17T06:34:52.520Z,68.67
2022-12-17T06:37:37.719Z,71.70
2022-12-17T06:40:27.063Z,73.10
2022-12-17T06:43:14.564Z,74.10
2022-12-17T06:46:00.363Z,86.07
2022-12-17T06:48:46.164Z,85.63
2022-12-17T06:51:32.164Z,67.47
2022-12-17T06:54:17.505Z,68.40
2022-12-17T06:57:03.014Z,67.37
2022-12-17T06:59:48.794Z,65.80
2022-12-17T07:02:34.368Z,66.70
2022-12-17T07:05:20.323Z,64.57
2022-12-17T07:08:05.589Z,59.43
2022-12-17T07:10:51.349Z,49.87
2022-12-17T07:13:38.281Z,60.97
2022-12-17T07:16:24.551Z,56.63
2022-12-17T07:19:10.136Z,44.23
2022-12-17T07:21:55.552Z,58.90
2022-12-17T07:24:41.360Z,54.07
2022-12-17T07:27:26.814Z,48.03
2022-12-17T07:30:12.120Z,57.57
2022-12-17T07:32:57.524Z,55.90
2022-12-17T07:35:43.204Z,53.63
2022-12-17T07:38:30.338Z,49.63
2022-12-17T07:41:18.086Z,62.80
2022-12-17T07:44:03.399Z,67.37
2022-12-17T07:46:48.843Z,67.33
2022-12-17T07:49:34.091Z,64.83
2022-12-17T07:52:19.515Z,59.37
2022-12-17T07:55:04.985Z,56.77
2022-12-17T07:57:50.512Z,61.67
2022-12-17T08:00:36.475Z,64.30
2022-12-17T08:03:21.944Z,63.70
2022-12-17T08:06:07.501Z,70.17
2022-12-17T08:08:53.120Z,52.60
2022-12-17T08:11:38.348Z,55.87
2022-12-17T08:14:23.734Z,54.83
2022-12-17T08:17:09.137Z,49.83
2022-12-17T08:19:55.870Z,56.03
2022-12-17T08:22:41.725Z,64.60
2022-12-17T08:25:28.055Z,58.70
2022-12-17T08:28:49.138Z,53.70
2022-12-17T08:31:25.924Z,58.80
2022-12-17T08:34:11.649Z,56.53
2022-12-17T08:36:56.974Z,51.50
2022-12-17T08:39:42.409Z,50.53
2022-12-17T08:42:27.888Z,47.23
2022-12-17T08:45:13.293Z,45.30
2022-12-17T08:48:03.584Z,49.77
2022-12-17T08:50:49.927Z,46.10
2022-12-17T08:53:35.454Z,46.77
2022-12-17T08:56:21.256Z,47.93
2022-12-17T08:59:07.414Z,51.03
2022-12-17T09:01:52.762Z,48.50
2022-12-17T09:04:38.460Z,51.67
2022-12-17T09:07:23.810Z,52.43
2022-12-17T09:10:09.140Z,49.43
2022-12-17T09:12:55.353Z,48.67
2022-12-17T09:15:42.849Z,55.17
2022-12-17T09:18:28.081Z,47.97
2022-12-17T09:21:15.110Z,46.33
2022-12-17T09:24:00.644Z,42.70
2022-12-17T09:26:45.946Z,45.73
2022-12-17T09:29:31.725Z,53.97
2022-12-17T09:32:17.152Z,33.63
2022-12-17T09:35:02.654Z,43.30
2022-12-17T09:37:47.921Z,41.77
2022-12-17T09:41:02.748Z,40.30
2022-12-17T09:44:27.248Z,37.23
2022-12-17T09:48:03.564Z,42.13
2022-12-17T09:50:49.451Z,39.47
2022-12-17T09:53:47.522Z,39.17
2022-12-17T09:56:34.258Z,48.90
2022-12-17T09:59:19.620Z,40.03
2022-12-17T10:02:05.170Z,42.20
2022-12-17T10:04:59.851Z,39.77
2022-12-17T10:07:54.335Z,46.10
2022-12-17T10:10:44.932Z,38.13
2022-12-17T10:13:42.564Z,28.20
2022-12-17T10:17:09.970Z,52.90
2022-12-17T10:20:00.369Z,41.90
2022-12-17T10:22:46.202Z,36.03
2022-12-17T10:25:41.616Z,41.77
2022-12-17T10:28:34.039Z,44.50
2022-12-17T10:31:27.332Z,40.83
2022-12-17T10:34:17.084Z,45.40
2022-12-17T10:37:09.224Z,48.03
2022-12-17T10:39:55.391Z,46.10
2022-12-17T10:42:56.797Z,40.47
2022-12-17T10:45:47.612Z,38.73
2022-12-17T10:48:45.910Z,46.43
2022-12-17T10:51:50.922Z,41.57
2022-12-17T10:54:51.229Z,48.20
2022-12-17T10:57:55.320Z,45.50
2022-12-17T11:00:58.032Z,45.77
2022-12-17T11:03:55.297Z,34.23
2022-12-17T11:06:50.239Z,43.83
2022-12-17T11:09:48.737Z,43.30
2022-12-17T11:12:36.609Z,43.30
2022-12-17T11:15:51.689Z,48.40
2022-12-17T11:18:45.284Z,51.00
2022-12-17T11:21:50.811Z,40.80
2022-12-17T11:24:44.742Z,50.90
2022-12-17T11:27:38.726Z,40.27
2022-12-17T11:30:36.154Z,48.13
2022-12-17T11:33:56.143Z,38.70
2022-12-17T11:37:16.864Z,41.30
2022-12-17T11:40:25.647Z,42.03
2022-12-17T11:43:20.399Z,37.50
2022-12-17T11:46:40.213Z,35.10
2022-12-17T11:49:39.442Z,26.63
2022-12-17T11:52:45.448Z,38.20
2022-12-17T11:56:08.098Z,41.10
2022-12-17T11:59:05.048Z,39.03
2022-12-17T12:02:38.236Z,37.57
2022-12-17T12:06:09.921Z,42.17
2022-12-17T12:09:26.145Z,45.37
2022-12-17T12:12:44.174Z,37.90
2022-12-17T12:16:11.365Z,50.23
2022-12-17T12:19:02.990Z,37.53
2022-12-17T12:22:10.131Z,43.23
2022-12-17T12:25:44.489Z,46.23
2022-12-17T12:28:47.689Z,47.13
2022-12-17T12:31:59.543Z,44.47
2022-12-17T12:34:51.285Z,52.07
2022-12-17T12:37:40.009Z,43.73
2022-12-17T12:41:05.930Z,47.97
2022-12-17T12:43:54.816Z,42.43
2022-12-17T12:46:51.924Z,49.10
2022-12-17T12:49:41.816Z,48.83
2022-12-17T12:52:56.120Z,50.23
2022-12-17T12:55:41.776Z,53.73
2022-12-17T12:58:48.924Z,45.20
2022-12-17T13:01:35.652Z,44.37
2022-12-17T13:04:48.588Z,50.03
2022-12-17T13:07:28.972Z,45.33
2022-12-17T13:09:59.460Z,49.47
2022-12-17T13:12:44.774Z,47.50
2022-12-17T13:15:30.179Z,48.23
2022-12-17T13:18:30.662Z,45.87
2022-12-17T13:21:24.473Z,49.63
2022-12-17T13:23:51.532Z,46.53
2022-12-17T13:26:45.197Z,47.37
2022-12-17T13:29:37.283Z,39.27
2022-12-17T13:32:44.710Z,38.03
2022-12-17T13:35:55.435Z,51.10
2022-12-17T13:38:37.737Z,49.93
2022-12-17T13:41:10.932Z,51.47
2022-12-17T13:43:50.373Z,44.40
2022-12-17T13:46:35.389Z,50.17
2022-12-17T13:49:12.000Z,55.40
2022-12-17T13:51:39.190Z,56.87
2022-12-17T13:54:06.106Z,58.40
2022-12-17T13:56:37.595Z,50.90
2022-12-17T13:59:09.468Z,50.80
2022-12-17T14:01:47.506Z,53.67
2022-12-17T14:04:25.213Z,48.67
2022-12-17T14:06:58.295Z,54.30
2022-12-17T14:09:35.708Z,56.07
2022-12-17T14:12:22.371Z,53.10
2022-12-17T14:14:59.348Z,53.37
2022-12-17T14:17:29.719Z,57.57
2022-12-17T14:20:20.076Z,57.53
2022-12-17T14:22:52.062Z,49.43
2022-12-17T14:25:30.005Z,59.37
2022-12-17T14:28:05.115Z,56.87
2022-12-17T14:30:43.017Z,54.27
2022-12-17T14:33:34.246Z,67.67
2022-12-17T14:36:09.158Z,48.10
2022-12-17T14:38:38.692Z,57.80
2022-12-17T14:41:32.924Z,52.97
2022-12-17T14:44:02.441Z,53.03
2022-12-17T14:46:31.765Z,52.37
2022-12-17T14:49:02.557Z,58.10
2022-12-17T14:51:40.585Z,60.53
2022-12-17T14:54:31.667Z,68.53
2022-12-17T14:57:00.253Z,63.87
2022-12-17T14:59:37.219Z,54.53
2022-12-17T15:02:16.241Z,56.07
2022-12-17T15:04:43.259Z,66.87
2022-12-17T15:07:25.736Z,65.20
2022-12-17T15:09:55.612Z,60.27
2022-12-17T15:12:24.866Z,58.07
2022-12-17T15:14:51.837Z,62.90
2022-12-17T15:17:18.771Z,76.63
2022-12-17T15:19:45.874Z,62.30
2022-12-17T15:22:17.864Z,62.97
2022-12-17T15:24:46.138Z,67.10
2022-12-17T15:27:16.590Z,84.37
2022-12-17T15:29:46.789Z,73.40
2022-12-17T15:32:23.673Z,73.10
2022-12-17T15:34:50.739Z,64.93
2022-12-17T15:37:25.362Z,66.93
2022-12-17T15:39:52.824Z,69.03
2022-12-17T15:42:38.404Z,65.63
2022-12-17T15:45:06.383Z,61.30
2022-12-17T15:47:33.359Z,66.47
2022-12-17T15:50:00.354Z,60.47
2022-12-17T15:52:27.873Z,68.57
2022-12-17T15:54:54.858Z,61.77
2022-12-17T15:57:22.148Z,66.20
2022-12-17T15:59:49.189Z,59.27
2022-12-17T16:02:16.253Z,62.47
2022-12-17T16:04:43.346Z,66.50
2022-12-17T16:07:10.344Z,61.97
2022-12-17T16:09:37.367Z,65.13
2022-12-17T16:12:04.495Z,71.20
2022-12-17T16:14:31.541Z,61.63
2022-12-17T16:16:58.644Z,74.93
2022-12-17T16:19:25.779Z,78.07
2022-12-17T16:21:52.873Z,76.53
2022-12-17T16:24:20.020Z,67.40
2022-12-17T16:26:47.048Z,67.70
2022-12-17T16:29:14.028Z,67.63
2022-12-17T16:31:41.162Z,67.37
2022-12-17T16:34:13.133Z,63.37
2022-12-17T16:36:40.157Z,70.80
2022-12-17T16:39:07.820Z,79.93
2022-12-17T16:41:35.214Z,67.73
2022-12-17T16:44:02.218Z,72.70
2022-12-17T16:46:40.573Z,68.47
2022-12-17T16:49:18.516Z,63.93
2022-12-17T16:51:47.379Z,73.90
2022-12-17T16:54:18.414Z,65.67
2022-12-17T16:56:46.508Z,71.57
2022-12-17T16:59:15.848Z,60.40
2022-12-17T17:01:48.482Z,64.13
2022-12-17T17:04:19.794Z,65.17
2022-12-17T17:06:50.581Z,57.13
2022-12-17T17:09:18.863Z,65.87
2022-12-17T17:11:51.548Z,69.53
2022-12-17T17:14:20.096Z,78.17
2022-12-17T17:16:47.052Z,65.93
2022-12-17T17:19:14.005Z,76.40
2022-12-17T17:21:43.919Z,72.45
2022-12-17T17:24:21.191Z,70.07
2022-12-17T17:26:50.452Z,84.20
2022-12-17T17:29:17.768Z,75.53
2022-12-17T17:34:32.515Z,69.07
2022-12-17T17:36:59.447Z,80.40
2022-12-17T17:39:27.429Z,87.33
2022-12-17T17:41:54.650Z,76.27
2022-12-17T17:44:21.674Z,85.13
2022-12-17T17:46:48.805Z,78.87
2022-12-17T17:49:15.929Z,84.23
2022-12-17T17:54:32.024Z,76.03
2022-12-17T17:56:59.117Z,88.40
2022-12-17T17:59:32.832Z,89.20
2022-12-17T18:02:01.219Z,78.17
2022-12-17T18:04:29.073Z,82.87
2022-12-17T18:09:43.047Z,77.97
2022-12-17T18:12:28.991Z,95.40
2022-12-17T18:17:49.794Z,71.53
2022-12-17T18:20:17.402Z,86.57
2022-12-17T18:22:46.621Z,77.23
2022-12-17T18:25:16.086Z,82.80
2022-12-17T18:27:43.438Z,69.07
2022-12-17T18:30:11.320Z,78.87
2022-12-17T18:32:38.368Z,84.20
2022-12-17T18:35:06.448Z,67.47
2022-12-17T18:37:33.959Z,76.87
2022-12-17T18:40:00.916Z,66.80
2022-12-17T18:42:50.844Z,80.37
2022-12-17T18:45:17.957Z,62.20
2022-12-17T18:47:45.000Z,60.30
2022-12-17T18:50:13.065Z,62.03
2022-12-17T18:52:40.070Z,67.53
2022-12-17T18:55:11.535Z,67.37
2022-12-17T18:57:38.557Z,75.10
2022-12-17T19:00:06.829Z,68.33
2022-12-17T19:02:33.980Z,75.73
2022-12-17T19:05:01.174Z,68.93
2022-12-17T19:07:28.566Z,82.13
2022-12-17T19:09:56.323Z,76.47
2022-12-17T19:12:23.872Z,58.30
2022-12-17T19:14:51.887Z,70.33
2022-12-17T19:17:20.786Z,72.60
2022-12-17T19:19:48.254Z,66.00
2022-12-17T19:22:17.376Z,64.37
2022-12-17T19:24:45.030Z,70.77
2022-12-17T19:27:12.263Z,63.10
2022-12-17T19:29:39.221Z,68.47
2022-12-17T19:32:06.504Z,60.80
2022-12-17T19:34:35.260Z,72.07
2022-12-17T19:37:04.837Z,73.67
2022-12-17T19:39:31.990Z,78.30
2022-12-17T19:41:59.125Z,75.07
2022-12-17T19:44:27.236Z,71.53
2022-12-17T19:46:54.231Z,61.40
2022-12-17T19:49:21.174Z,67.93
2022-12-17T19:51:48.165Z,59.63
2022-12-17T19:54:15.848Z,54.83
2022-12-17T19:56:45.162Z,62.80
2022-12-17T19:59:13.422Z,58.13
2022-12-17T20:01:48.094Z,70.47
2022-12-17T20:04:17.688Z,64.33
2022-12-17T20:06:45.465Z,62.33
2022-12-17T20:09:15.484Z,67.07
2022-12-17T20:11:42.549Z,71.00
2022-12-17T20:14:28.910Z,59.27
2022-12-17T20:16:59.623Z,64.40
2022-12-17T20:19:33.528Z,60.73
2022-12-17T20:22:05.196Z,60.73
2022-12-17T20:24:32.709Z,64.97
2022-12-17T20:27:01.831Z,75.13
2022-12-17T20:29:29.751Z,64.70
2022-12-17T20:31:57.929Z,68.90
2022-12-17T20:34:25.886Z,61.67
2022-12-17T20:36:55.435Z,55.50
2022-12-17T20:39:27.221Z,70.57
2022-12-17T20:41:58.133Z,61.30
2022-12-17T20:44:25.724Z,72.03
2022-12-17T20:46:53.660Z,63.87
2022-12-17T20:49:22.280Z,55.90
2022-12-17T20:51:49.194Z,73.43
2022-12-17T20:54:16.398Z,66.13
2022-12-17T20:56:52.489Z,67.47
2022-12-17T20:59:20.663Z,64.97
2022-12-17T21:01:53.034Z,64.70
2022-12-17T21:04:34.821Z,85.53
2022-12-17T21:07:02.376Z,65.13
2022-12-17T21:09:29.305Z,58.53
2022-12-17T21:11:56.272Z,58.97
2022-12-17T21:14:33.662Z,68.83
2022-12-17T21:17:05.072Z,73.87
2022-12-17T21:19:32.574Z,58.17
2022-12-17T21:21:59.741Z,62.57
2022-12-17T21:24:26.689Z,66.67
2022-12-17T21:26:53.775Z,65.03
2022-12-17T21:29:20.719Z,63.27
2022-12-17T21:31:51.198Z,64.73
2022-12-17T21:34:22.671Z,58.10
2022-12-17T21:36:51.288Z,68.30
2022-12-17T21:39:19.622Z,65.37
2022-12-17T21:42:05.105Z,61.10
2022-12-17T21:44:32.334Z,67.13
2022-12-17T21:46:59.937Z,65.10
2022-12-17T21:49:27.090Z,63.97
2022-12-17T21:51:55.304Z,65.93
2022-12-17T21:54:22.249Z,79.27
2022-12-17T21:56:49.253Z,58.90
2022-12-17T21:59:16.953Z,66.37
2022-12-17T22:01:44.169Z,84.07
2022-12-17T22:04:11.419Z,68.63
2022-12-17T22:06:43.568Z,75.03
2022-12-17T22:09:34.218Z,76.83
2022-12-17T22:12:29.371Z,64.67
2022-12-17T22:14:56.254Z,78.00
2022-12-17T22:17:23.792Z,88.73
2022-12-17T22:19:50.768Z,62.40
2022-12-17T22:22:17.769Z,67.57
2022-12-17T22:24:44.832Z,64.60
2022-12-17T22:27:11.840Z,60.10
2022-12-17T22:29:57.138Z,74.20
2022-12-17T22:32:42.523Z,65.30
2022-12-17T22:36:20.375Z,70.70
2022-12-17T22:41:00.109Z,68.50
2022-12-17T22:44:29.615Z,72.30
2022-12-17T22:44:43.761Z,62.10
2022-12-17T22:46:18.603Z,64.03
2022-12-17T22:48:46.029Z,68.40
2022-12-17T22:51:22.979Z,84.87
2022-12-17T22:53:55.793Z,72.87
2022-12-17T22:56:58.711Z,63.73
2022-12-17T22:59:17.394Z,62.70
2022-12-17T23:01:45.091Z,66.07
2022-12-17T23:04:15.915Z,73.93
2022-12-17T23:06:45.838Z,71.23
2022-12-17T23:09:19.560Z,54.00
2022-12-17T23:11:48.696Z,72.30
2022-12-17T23:14:17.613Z,75.60
2022-12-17T23:16:45.450Z,68.70
2022-12-17T23:19:13.752Z,68.60
2022-12-17T23:21:40.748Z,69.17
2022-12-17T23:24:09.049Z,75.80
2022-12-17T23:26:38.057Z,63.63
2022-12-17T23:29:11.654Z,76.70
2022-12-17T23:31:41.965Z,87.10
2022-12-17T23:34:09.286Z,72.97
2022-12-17T23:36:37.312Z,66.57
2022-12-17T23:39:05.795Z,76.40
2022-12-17T23:41:33.492Z,81.23
2022-12-17T23:44:00.868Z,66.50
2022-12-17T23:46:30.620Z,85.40
2022-12-17T23:48:58.488Z,70.40
2022-12-17T23:51:26.413Z,69.00
2022-12-17T23:53:53.388Z,81.67
2022-12-17T23:56:23.957Z,84.40
2022-12-17T23:59:00.708Z,73.40
